createdAt,value
2016-10-27T00:00:24.610Z,1028.51
2016-10-27T00:01:24.633Z,1028.5
2016-10-27T00:02:24.653Z,1028.51
2016-10-27T00:03:24.671Z,1028.49
2016-10-27T00:04:24.680Z,1028.48
2016-10-27T00:05:24.745Z,1028.48
2016-10-27T00:06:24.718Z,1028.45
2016-10-27T00:07:24.785Z,1028.48
2016-10-27T00:08:24.753Z,1028.49
2016-10-27T00:09:24.777Z,1028.48
2016-10-27T00:10:24.796Z,1028.48
2016-10-27T00:11:24.815Z,1028.46
2016-10-27T00:12:24.830Z,1028.48
2016-10-27T00:13:24.851Z,1028.53
2016-10-27T00:14:24.870Z,1028.5
2016-10-27T00:15:24.889Z,1028.48
2016-10-27T00:16:24.907Z,1028.51
2016-10-27T00:17:24.926Z,1028.49
2016-10-27T00:18:24.945Z,1028.53
2016-10-27T00:19:24.971Z,1028.51
2016-10-27T00:20:24.979Z,1028.54
2016-10-27T00:21:25.000Z,1028.53
2016-10-27T00:22:25.019Z,1028.52
2016-10-27T00:23:25.044Z,1028.54
2016-10-27T00:24:25.058Z,1028.56
2016-10-27T00:25:25.073Z,1028.57
2016-10-27T00:26:25.101Z,1028.53
2016-10-27T00:27:25.114Z,1028.56
2016-10-27T00:28:25.136Z,1028.59
2016-10-27T00:29:25.155Z,1028.56
2016-10-27T00:30:25.169Z,1028.57
2016-10-27T00:31:25.193Z,1028.59
2016-10-27T00:32:25.205Z,1028.62
2016-10-27T00:33:25.231Z,1028.61
2016-10-27T00:34:25.240Z,1028.62
2016-10-27T00:35:25.269Z,1028.63
2016-10-27T00:36:25.288Z,1028.64
2016-10-27T00:37:25.302Z,1028.69
2016-10-27T00:38:25.320Z,1028.7
2016-10-27T00:39:25.337Z,1028.67
2016-10-27T00:40:25.358Z,1028.67
2016-10-27T00:41:25.377Z,1028.61
2016-10-27T00:42:25.400Z,1028.64
2016-10-27T00:43:25.421Z,1028.6
2016-10-27T00:44:25.431Z,1028.56
2016-10-27T00:45:25.455Z,1028.55
2016-10-27T00:46:25.468Z,1028.53
2016-10-27T00:47:25.501Z,1028.51
2016-10-27T00:48:25.509Z,1028.53
2016-10-27T00:49:25.538Z,1028.51
2016-10-27T00:50:25.544Z,1028.52
2016-10-27T00:51:25.563Z,1028.53
2016-10-27T00:52:25.583Z,1028.52
2016-10-27T00:53:25.600Z,1028.52
2016-10-27T00:54:25.621Z,1028.52
2016-10-27T00:55:25.637Z,1028.51
2016-10-27T00:56:25.661Z,1028.54
2016-10-27T00:57:25.676Z,1028.55
2016-10-27T00:58:25.697Z,1028.56
2016-10-27T00:59:25.717Z,1028.55
2016-10-27T01:00:25.733Z,1028.55
2016-10-27T01:01:25.757Z,1028.57
2016-10-27T01:02:25.773Z,1028.51
2016-10-27T01:03:25.787Z,1028.55
2016-10-27T01:04:25.807Z,1028.55
2016-10-27T01:05:25.829Z,1028.5
2016-10-27T01:06:25.849Z,1028.48
2016-10-27T01:07:25.878Z,1028.5
2016-10-27T01:08:25.883Z,1028.5
2016-10-27T01:09:25.907Z,1028.47
2016-10-27T01:10:25.928Z,1028.51
2016-10-27T01:11:25.947Z,1028.48
2016-10-27T01:12:25.968Z,1028.51
2016-10-27T01:13:25.976Z,1028.52
2016-10-27T01:14:26.002Z,1028.54
2016-10-27T01:15:26.016Z,1028.55
2016-10-27T01:16:26.036Z,1028.56
2016-10-27T01:17:26.056Z,1028.53
2016-10-27T01:18:26.078Z,1028.6
2016-10-27T01:19:26.094Z,1028.6
2016-10-27T01:20:26.107Z,1028.63
2016-10-27T01:21:26.131Z,1028.62
2016-10-27T01:22:26.145Z,1028.62
2016-10-27T01:23:26.167Z,1028.62
2016-10-27T01:24:26.186Z,1028.52
2016-10-27T01:25:26.257Z,1028.54
2016-10-27T01:26:26.230Z,1028.52
2016-10-27T01:27:26.241Z,1028.55
2016-10-27T01:28:26.267Z,1028.5
2016-10-27T01:29:26.279Z,1028.5
2016-10-27T01:30:26.305Z,1028.43
2016-10-27T01:31:26.319Z,1028.45
2016-10-27T01:32:26.338Z,1028.4
2016-10-27T01:33:26.356Z,1028.41
2016-10-27T01:34:26.375Z,1028.4
2016-10-27T01:35:26.396Z,1028.38
2016-10-27T01:36:26.439Z,1028.39
2016-10-27T01:37:26.436Z,1028.37
2016-10-27T01:38:26.500Z,1028.36
2016-10-27T01:39:26.468Z,1028.34
2016-10-27T01:40:26.484Z,1028.38
2016-10-27T01:41:26.506Z,1028.37
2016-10-27T01:42:26.525Z,1028.42
2016-10-27T01:43:26.544Z,1028.44
2016-10-27T01:44:26.565Z,1028.43
2016-10-27T01:45:26.583Z,1028.45
2016-10-27T01:46:26.601Z,1028.41
2016-10-27T01:47:26.627Z,1028.45
2016-10-27T01:48:26.649Z,1028.42
2016-10-27T01:49:26.654Z,1028.41
2016-10-27T01:50:26.676Z,1028.39
2016-10-27T01:51:26.748Z,1028.4
2016-10-27T01:52:26.718Z,1028.44
2016-10-27T01:53:26.730Z,1028.42
2016-10-27T01:54:26.757Z,1028.43
2016-10-27T01:55:26.778Z,1028.47
2016-10-27T01:56:26.796Z,1028.44
2016-10-27T01:57:26.807Z,1028.45
2016-10-27T01:58:26.852Z,1028.42
2016-10-27T01:59:26.849Z,1028.45
2016-10-27T02:00:26.869Z,1028.43
2016-10-27T02:01:26.884Z,1028.44
2016-10-27T02:02:26.905Z,1028.42
2016-10-27T02:03:26.937Z,1028.44
2016-10-27T02:04:26.938Z,1028.4
2016-10-27T02:05:26.963Z,1028.37
2016-10-27T02:06:26.982Z,1028.41
2016-10-27T02:07:26.996Z,1028.37
2016-10-27T02:08:27.015Z,1028.39
2016-10-27T02:09:27.044Z,1028.38
2016-10-27T02:10:27.053Z,1028.39
2016-10-27T02:11:27.076Z,1028.39
2016-10-27T02:12:27.092Z,1028.39
2016-10-27T02:13:27.116Z,1028.4
2016-10-27T02:14:27.130Z,1028.4
2016-10-27T02:15:27.146Z,1028.4
2016-10-27T02:16:27.174Z,1028.37
2016-10-27T02:17:27.185Z,1028.36
2016-10-27T02:18:27.204Z,1028.37
2016-10-27T02:19:27.227Z,1028.36
2016-10-27T02:20:27.241Z,1028.35
2016-10-27T02:21:27.265Z,1028.34
2016-10-27T02:22:27.281Z,1028.25
2016-10-27T02:23:27.306Z,1028.26
2016-10-27T02:24:27.322Z,1028.25
2016-10-27T02:25:27.353Z,1028.25
2016-10-27T02:26:27.357Z,1028.25
2016-10-27T02:27:27.376Z,1028.21
2016-10-27T02:28:27.396Z,1028.2
2016-10-27T02:29:27.415Z,1028.21
2016-10-27T02:30:27.433Z,1028.17
2016-10-27T02:31:27.457Z,1028.19
2016-10-27T02:32:27.476Z,1028.15
2016-10-27T02:33:27.486Z,1028.14
2016-10-27T02:34:27.505Z,1028.14
2016-10-27T02:35:27.524Z,1028.15
2016-10-27T02:36:27.542Z,1028.11
2016-10-27T02:37:27.566Z,1028.19
2016-10-27T02:38:27.581Z,1028.11
2016-10-27T02:39:27.601Z,1028.11
2016-10-27T02:40:27.628Z,1028.15
2016-10-27T02:41:27.648Z,1028.11
2016-10-27T02:42:27.667Z,1028.13
2016-10-27T02:43:27.675Z,1028.12
2016-10-27T02:44:27.706Z,1028.15
2016-10-27T02:45:27.717Z,1028.17
2016-10-27T02:46:27.736Z,1028.21
2016-10-27T02:47:27.755Z,1028.23
2016-10-27T02:48:27.777Z,1028.22
2016-10-27T02:49:27.797Z,1028.25
2016-10-27T02:50:27.806Z,1028.24
2016-10-27T02:51:27.835Z,1028.25
2016-10-27T02:52:27.850Z,1028.26
2016-10-27T02:53:27.867Z,1028.29
2016-10-27T02:54:27.885Z,1028.31
2016-10-27T02:55:27.906Z,1028.34
2016-10-27T02:56:27.922Z,1028.3
2016-10-27T02:57:27.949Z,1028.34
2016-10-27T02:58:27.965Z,1028.4
2016-10-27T02:59:27.988Z,1028.45
2016-10-27T03:00:28.004Z,1028.46
2016-10-27T03:01:28.018Z,1028.47
2016-10-27T03:02:28.043Z,1028.47
2016-10-27T03:03:28.061Z,1028.47
2016-10-27T03:04:28.077Z,1028.47
2016-10-27T03:05:28.099Z,1028.51
2016-10-27T03:06:28.118Z,1028.49
2016-10-27T03:07:28.132Z,1028.53
2016-10-27T03:08:28.154Z,1028.51
2016-10-27T03:09:28.174Z,1028.55
2016-10-27T03:10:28.192Z,1028.61
2016-10-27T03:11:28.206Z,1028.59
2016-10-27T03:12:28.226Z,1028.6
2016-10-27T03:13:28.253Z,1028.59
2016-10-27T03:14:28.267Z,1028.61
2016-10-27T03:15:28.286Z,1028.58
2016-10-27T03:16:28.308Z,1028.62
2016-10-27T03:17:28.319Z,1028.66
2016-10-27T03:18:28.449Z,1028.65
2016-10-27T03:19:28.363Z,1028.65
2016-10-27T03:20:28.380Z,1028.62
2016-10-27T03:21:28.399Z,1028.65
2016-10-27T03:22:28.419Z,1028.57
2016-10-27T03:23:28.438Z,1028.55
2016-10-27T03:24:28.457Z,1028.57
2016-10-27T03:25:28.478Z,1028.58
2016-10-27T03:26:28.499Z,1028.52
2016-10-27T03:27:28.515Z,1028.55
2016-10-27T03:28:28.534Z,1028.57
2016-10-27T03:29:28.565Z,1028.59
2016-10-27T03:30:28.570Z,1028.65
2016-10-27T03:31:28.795Z,1028.62
2016-10-27T03:32:28.613Z,1028.63
2016-10-27T03:33:28.630Z,1028.65
2016-10-27T03:34:28.658Z,1028.6
2016-10-27T03:35:28.665Z,1028.62
2016-10-27T03:36:28.689Z,1028.64
2016-10-27T03:37:28.704Z,1028.63
2016-10-27T03:38:28.727Z,1028.61
2016-10-27T03:39:28.748Z,1028.63
2016-10-27T03:40:28.771Z,1028.69
2016-10-27T03:41:28.787Z,1028.66
2016-10-27T03:42:28.817Z,1028.65
2016-10-27T03:43:28.824Z,1028.64
2016-10-27T03:44:28.850Z,1028.64
2016-10-27T03:45:28.860Z,1028.69
2016-10-27T03:46:28.883Z,1028.66
2016-10-27T03:47:28.897Z,1028.68
2016-10-27T03:48:28.922Z,1028.65
2016-10-27T03:49:28.941Z,1028.61
2016-10-27T03:50:28.959Z,1028.63
2016-10-27T03:51:28.980Z,1028.62
2016-10-27T03:52:28.998Z,1028.63
2016-10-27T03:53:29.022Z,1028.61
2016-10-27T03:54:29.041Z,1028.64
2016-10-27T03:55:29.058Z,1028.61
2016-10-27T03:56:29.072Z,1028.63
2016-10-27T03:57:29.102Z,1028.6
2016-10-27T03:58:29.113Z,1028.64
2016-10-27T03:59:29.133Z,1028.62
2016-10-27T04:00:29.149Z,1028.66
2016-10-27T04:01:29.173Z,1028.66
2016-10-27T04:02:29.193Z,1028.61
2016-10-27T04:03:29.212Z,1028.6
2016-10-27T04:04:29.231Z,1028.6
2016-10-27T04:05:29.246Z,1028.62
2016-10-27T04:06:29.271Z,1028.64
2016-10-27T04:07:29.289Z,1028.65
2016-10-27T04:08:29.308Z,1028.64
2016-10-27T04:09:29.322Z,1028.63
2016-10-27T04:10:29.338Z,1028.66
2016-10-27T04:11:29.359Z,1028.66
2016-10-27T04:12:29.381Z,1028.67
2016-10-27T04:13:29.407Z,1028.68
2016-10-27T04:14:29.423Z,1028.74
2016-10-27T04:15:29.434Z,1028.71
2016-10-27T04:16:29.457Z,1028.69
2016-10-27T04:17:29.484Z,1028.74
2016-10-27T04:18:29.495Z,1028.72
2016-10-27T04:19:29.511Z,1028.72
2016-10-27T04:20:29.533Z,1028.75
2016-10-27T04:21:29.550Z,1028.72
2016-10-27T04:22:29.572Z,1028.76
2016-10-27T04:23:29.592Z,1028.8
2016-10-27T04:24:29.610Z,1028.8
2016-10-27T04:25:29.632Z,1028.78
2016-10-27T04:26:29.652Z,1028.77
2016-10-27T04:27:29.669Z,1028.78
2016-10-27T04:28:29.689Z,1028.79
2016-10-27T04:29:29.703Z,1028.74
2016-10-27T04:30:29.728Z,1028.77
2016-10-27T04:31:29.750Z,1028.82
2016-10-27T04:32:29.813Z,1028.78
2016-10-27T04:33:29.781Z,1028.81
2016-10-27T04:34:29.800Z,1028.86
2016-10-27T04:35:29.822Z,1028.82
2016-10-27T04:36:29.838Z,1028.85
2016-10-27T04:37:30.056Z,1028.81
2016-10-27T04:38:29.880Z,1028.85
2016-10-27T04:39:29.899Z,1028.87
2016-10-27T04:40:29.925Z,1028.87
2016-10-27T04:41:29.942Z,1028.87
2016-10-27T04:42:29.955Z,1028.87
2016-10-27T04:43:29.984Z,1028.93
2016-10-27T04:44:30.000Z,1028.93
2016-10-27T04:45:30.120Z,1028.96
2016-10-27T04:46:30.042Z,1028.96
2016-10-27T04:47:30.103Z,1028.97
2016-10-27T04:48:30.072Z,1029.02
2016-10-27T04:49:30.088Z,1029.02
2016-10-27T04:50:30.110Z,1028.98
2016-10-27T04:51:30.133Z,1028.98
2016-10-27T04:52:30.152Z,1028.99
2016-10-27T04:53:30.174Z,1029
2016-10-27T04:54:30.203Z,1028.99
2016-10-27T04:55:30.212Z,1029
2016-10-27T04:56:30.231Z,1029.03
2016-10-27T04:57:30.242Z,1028.99
2016-10-27T04:58:30.273Z,1029.07
2016-10-27T04:59:30.281Z,1029.03
2016-10-27T05:00:30.402Z,1029.07
2016-10-27T05:01:30.329Z,1029.05
2016-10-27T05:02:30.342Z,1029.05
2016-10-27T05:03:30.361Z,1029.06
2016-10-27T05:04:30.377Z,1029.02
2016-10-27T05:05:30.405Z,1029.01
2016-10-27T05:06:30.421Z,1029.04
2016-10-27T05:07:30.441Z,1029.06
2016-10-27T05:08:30.465Z,1029.04
2016-10-27T05:09:30.482Z,1029.06
2016-10-27T05:10:30.497Z,1029.02
2016-10-27T05:11:30.515Z,1028.97
2016-10-27T05:12:30.540Z,1029.09
2016-10-27T05:13:30.560Z,1029.1
2016-10-27T05:14:30.578Z,1029.05
2016-10-27T05:15:30.642Z,1029.07
2016-10-27T05:16:30.612Z,1029.12
2016-10-27T05:17:30.633Z,1029.08
2016-10-27T05:18:30.654Z,1029.1
2016-10-27T05:19:30.678Z,1029.12
2016-10-27T05:20:30.693Z,1029.09
2016-10-27T05:21:30.708Z,1029.09
2016-10-27T05:22:30.731Z,1029.11
2016-10-27T05:23:30.751Z,1029.12
2016-10-27T05:24:30.772Z,1029.1
2016-10-27T05:25:30.781Z,1029.07
2016-10-27T05:26:30.902Z,1029.11
2016-10-27T05:27:30.818Z,1029.12
2016-10-27T05:28:30.840Z,1029.1
2016-10-27T05:29:30.871Z,1029.08
2016-10-27T05:30:30.879Z,1029.11
2016-10-27T05:31:30.898Z,1029.1
2016-10-27T05:32:30.922Z,1029.12
2016-10-27T05:33:30.951Z,1029.15
2016-10-27T05:34:30.958Z,1029.18
2016-10-27T05:35:30.983Z,1029.17
2016-10-27T05:36:30.997Z,1029.16
2016-10-27T05:37:31.024Z,1029.17
2016-10-27T05:38:31.035Z,1029.13
2016-10-27T05:39:31.063Z,1029.16
2016-10-27T05:40:31.070Z,1029.13
2016-10-27T05:41:31.112Z,1029.14
2016-10-27T05:42:31.114Z,1029.13
2016-10-27T05:43:31.143Z,1029.12
2016-10-27T05:44:31.152Z,1029.14
2016-10-27T05:45:31.171Z,1029.12
2016-10-27T05:46:31.192Z,1029.17
2016-10-27T05:47:31.207Z,1029.19
2016-10-27T05:48:31.229Z,1029.23
2016-10-27T05:49:31.251Z,1029.24
2016-10-27T05:50:31.272Z,1029.23
2016-10-27T05:51:31.285Z,1029.24
2016-10-27T05:52:31.310Z,1029.24
2016-10-27T05:53:31.329Z,1029.27
2016-10-27T05:54:31.350Z,1029.31
2016-10-27T05:55:31.364Z,1029.34
2016-10-27T05:56:31.384Z,1029.37
2016-10-27T05:57:31.400Z,1029.36
2016-10-27T05:58:31.422Z,1029.32
2016-10-27T05:59:31.441Z,1029.3
2016-10-27T06:00:31.457Z,1029.32
2016-10-27T06:01:31.479Z,1029.29
2016-10-27T06:02:31.500Z,1029.32
2016-10-27T06:03:31.522Z,1029.26
2016-10-27T06:04:31.537Z,1029.29
2016-10-27T06:05:31.553Z,1029.28
2016-10-27T06:06:31.580Z,1029.27
2016-10-27T06:07:31.603Z,1029.29
2016-10-27T06:08:31.613Z,1029.27
2016-10-27T06:09:31.634Z,1029.28
2016-10-27T06:10:31.657Z,1029.36
2016-10-27T06:11:31.675Z,1029.35
2016-10-27T06:12:31.695Z,1029.37
2016-10-27T06:13:31.710Z,1029.37
2016-10-27T06:14:31.730Z,1029.39
2016-10-27T06:15:31.748Z,1029.38
2016-10-27T06:16:31.772Z,1029.38
2016-10-27T06:17:31.792Z,1029.36
2016-10-27T06:18:31.806Z,1029.41
2016-10-27T06:19:31.827Z,1029.38
2016-10-27T06:20:31.860Z,1029.43
2016-10-27T06:21:31.866Z,1029.44
2016-10-27T06:22:31.886Z,1029.43
2016-10-27T06:23:31.911Z,1029.46
2016-10-27T06:24:31.928Z,1029.44
2016-10-27T06:25:31.944Z,1029.43
2016-10-27T06:26:31.968Z,1029.44
2016-10-27T06:27:32.003Z,1029.45
2016-10-27T06:28:32.001Z,1029.5
2016-10-27T06:29:32.020Z,1029.48
2016-10-27T06:30:32.040Z,1029.47
2016-10-27T06:31:32.071Z,1029.52
2016-10-27T06:32:32.081Z,1029.57
2016-10-27T06:33:32.100Z,1029.57
2016-10-27T06:34:32.119Z,1029.57
2016-10-27T06:35:32.142Z,1029.62
2016-10-27T06:36:32.161Z,1029.56
2016-10-27T06:37:32.178Z,1029.57
2016-10-27T06:38:32.194Z,1029.59
2016-10-27T06:39:32.223Z,1029.62
2016-10-27T06:40:32.262Z,1029.57
2016-10-27T06:41:32.259Z,1029.6
2016-10-27T06:42:32.329Z,1029.58
2016-10-27T06:43:32.297Z,1029.61
2016-10-27T06:44:32.317Z,1029.61
2016-10-27T06:45:32.340Z,1029.59
2016-10-27T06:46:32.353Z,1029.59
2016-10-27T06:47:32.380Z,1029.62
2016-10-27T06:48:32.402Z,1029.56
2016-10-27T06:49:32.424Z,1029.53
2016-10-27T06:50:32.444Z,1029.52
2016-10-27T06:51:32.509Z,1029.53
2016-10-27T06:52:32.481Z,1029.58
2016-10-27T06:53:32.601Z,1029.59
2016-10-27T06:54:32.519Z,1029.59
2016-10-27T06:55:32.538Z,1029.63
2016-10-27T06:56:32.552Z,1029.61
2016-10-27T06:57:32.579Z,1029.61
2016-10-27T06:58:32.590Z,1029.64
2016-10-27T06:59:32.665Z,1029.66
2016-10-27T07:00:32.628Z,1029.63
2016-10-27T07:01:32.650Z,1029.66
2016-10-27T07:02:32.670Z,1029.68
2016-10-27T07:03:32.682Z,1029.71
2016-10-27T07:04:32.839Z,1029.69
2016-10-27T07:05:32.730Z,1029.69
2016-10-27T07:06:32.747Z,1029.68
2016-10-27T07:07:32.768Z,1029.71
2016-10-27T07:08:32.839Z,1029.73
2016-10-27T07:09:32.812Z,1029.72
2016-10-27T07:10:32.828Z,1029.73
2016-10-27T07:11:32.847Z,1029.75
2016-10-27T07:12:32.868Z,1029.82
2016-10-27T07:13:32.890Z,1029.8
2016-10-27T07:14:32.903Z,1029.78
2016-10-27T07:15:32.927Z,1029.81
2016-10-27T07:16:32.938Z,1029.78
2016-10-27T07:17:32.967Z,1029.78
2016-10-27T07:18:32.984Z,1029.79
2016-10-27T07:19:33.050Z,1029.75
2016-10-27T07:20:33.023Z,1029.76
2016-10-27T07:21:33.040Z,1029.78
2016-10-27T07:22:33.060Z,1029.81
2016-10-27T07:23:33.080Z,1029.8
2016-10-27T07:24:33.303Z,1029.82
2016-10-27T07:25:33.125Z,1029.84
2016-10-27T07:26:33.145Z,1029.81
2016-10-27T07:27:33.309Z,1029.83
2016-10-27T07:28:33.428Z,1029.81
2016-10-27T07:29:33.601Z,1029.85
2016-10-27T07:30:33.521Z,1029.85
2016-10-27T07:31:33.493Z,1029.87
2016-10-27T07:32:33.467Z,1029.9
2016-10-27T07:33:33.479Z,1029.92
2016-10-27T07:34:33.500Z,1029.89
2016-10-27T07:35:33.466Z,1029.92
2016-10-27T07:36:33.485Z,1029.97
2016-10-27T07:37:33.510Z,1029.94
2016-10-27T07:38:33.480Z,1029.95
2016-10-27T07:39:33.498Z,1029.96
2016-10-27T07:40:33.515Z,1029.97
2016-10-27T07:41:33.539Z,1029.99
2016-10-27T07:42:33.506Z,1030
2016-10-27T07:43:33.578Z,1030
2016-10-27T07:44:33.549Z,1030
2016-10-27T07:45:33.520Z,1030.05
2016-10-27T07:46:33.541Z,1030.06
2016-10-27T07:47:33.607Z,1030.07
2016-10-27T07:48:33.578Z,1030.06
2016-10-27T07:49:33.614Z,1030.08
2016-10-27T07:50:33.631Z,1030.09
2016-10-27T07:51:33.641Z,1030.08
2016-10-27T07:52:33.666Z,1030.07
2016-10-27T07:53:33.688Z,1030.09
2016-10-27T07:54:33.699Z,1030.05
2016-10-27T07:55:33.890Z,1030.02
2016-10-27T07:56:33.743Z,1029.97
2016-10-27T07:57:33.758Z,1029.99
2016-10-27T07:58:33.786Z,1030.02
2016-10-27T07:59:33.802Z,1030
2016-10-27T08:00:34.124Z,1029.99
2016-10-27T08:01:33.841Z,1030.04
2016-10-27T08:02:33.860Z,1030.04
2016-10-27T08:03:33.879Z,1030.09
2016-10-27T08:04:33.908Z,1030.08
2016-10-27T08:05:33.925Z,1030.08
2016-10-27T08:06:33.948Z,1030.06
2016-10-27T08:07:33.970Z,1030.09
2016-10-27T08:08:33.982Z,1030.08
2016-10-27T08:09:34.012Z,1030.1
2016-10-27T08:10:34.031Z,1030.11
2016-10-27T08:11:34.052Z,1030.09
2016-10-27T08:12:34.068Z,1030.14
2016-10-27T08:13:34.087Z,1030.19
2016-10-27T08:14:34.108Z,1030.18
2016-10-27T08:15:34.129Z,1030.18
2016-10-27T08:16:34.150Z,1030.21
2016-10-27T08:17:34.166Z,1030.21
2016-10-27T08:18:34.191Z,1030.23
2016-10-27T08:19:34.207Z,1030.24
2016-10-27T08:20:34.324Z,1030.26
2016-10-27T08:21:34.247Z,1030.22
2016-10-27T08:22:34.267Z,1030.23
2016-10-27T08:23:34.288Z,1030.27
2016-10-27T08:24:34.307Z,1030.26
2016-10-27T08:25:34.333Z,1030.31
2016-10-27T08:26:34.361Z,1030.32
2016-10-27T08:27:34.570Z,1030.31
2016-10-27T08:28:34.395Z,1030.3
2016-10-27T08:29:34.429Z,1030.3
2016-10-27T08:30:34.438Z,1030.35
2016-10-27T08:31:34.588Z,1030.34
2016-10-27T08:32:34.476Z,1030.41
2016-10-27T08:33:34.537Z,1030.4
2016-10-27T08:34:34.521Z,1030.43
2016-10-27T08:35:34.540Z,1030.44
2016-10-27T08:36:34.564Z,1030.47
2016-10-27T08:37:34.582Z,1030.45
2016-10-27T08:38:34.617Z,1030.46
2016-10-27T08:39:34.636Z,1030.43
2016-10-27T08:40:34.635Z,1030.45
2016-10-27T08:41:34.668Z,1030.47
2016-10-27T08:42:34.677Z,1030.45
2016-10-27T08:43:34.699Z,1030.45
2016-10-27T08:44:34.732Z,1030.41
2016-10-27T08:45:34.751Z,1030.46
2016-10-27T08:46:34.862Z,1030.43
2016-10-27T08:47:34.782Z,1030.41
2016-10-27T08:48:34.804Z,1030.42
2016-10-27T08:49:34.840Z,1030.44
2016-10-27T08:50:34.849Z,1030.44
2016-10-27T08:51:34.868Z,1030.45
2016-10-27T08:52:34.905Z,1030.47
2016-10-27T08:53:34.905Z,1030.47
2016-10-27T08:54:34.929Z,1030.48
2016-10-27T08:55:34.951Z,1030.49
2016-10-27T08:56:34.968Z,1030.49
2016-10-27T08:57:34.991Z,1030.51
2016-10-27T08:58:35.009Z,1030.51
2016-10-27T08:59:35.038Z,1030.53
2016-10-27T09:00:35.056Z,1030.54
2016-10-27T09:01:35.079Z,1030.52
2016-10-27T09:02:35.099Z,1030.62
2016-10-27T09:03:35.120Z,1030.64
2016-10-27T09:04:35.141Z,1030.64
2016-10-27T09:05:35.171Z,1030.67
2016-10-27T09:06:35.182Z,1030.67
2016-10-27T09:07:35.198Z,1030.68
2016-10-27T09:08:35.221Z,1030.68
2016-10-27T09:09:35.246Z,1030.68
2016-10-27T09:10:35.262Z,1030.69
2016-10-27T09:11:35.285Z,1030.69
2016-10-27T09:12:35.308Z,1030.7
2016-10-27T09:13:35.331Z,1030.68
2016-10-27T09:14:35.350Z,1030.7
2016-10-27T09:15:35.368Z,1030.68
2016-10-27T09:16:35.386Z,1030.73
2016-10-27T09:17:35.414Z,1030.69
2016-10-27T09:18:35.438Z,1030.68
2016-10-27T09:19:35.456Z,1030.67
2016-10-27T09:20:35.470Z,1030.69
2016-10-27T09:21:35.496Z,1030.68
2016-10-27T09:22:35.519Z,1030.71
2016-10-27T09:23:35.542Z,1030.77
2016-10-27T09:24:35.566Z,1030.76
2016-10-27T09:25:35.588Z,1030.79
2016-10-27T09:26:35.604Z,1030.76
2016-10-27T09:27:35.632Z,1030.82
2016-10-27T09:28:35.649Z,1030.83
2016-10-27T09:29:35.668Z,1030.83
2016-10-27T09:30:35.688Z,1030.78
2016-10-27T09:31:35.719Z,1030.84
2016-10-27T09:32:35.739Z,1030.81
2016-10-27T09:33:35.756Z,1030.83
2016-10-27T09:34:35.789Z,1030.85
2016-10-27T09:35:35.800Z,1030.88
2016-10-27T09:36:35.819Z,1030.9
2016-10-27T09:37:35.846Z,1030.94
2016-10-27T09:38:35.864Z,1030.92
2016-10-27T09:39:35.886Z,1030.95
2016-10-27T09:40:35.908Z,1030.95
2016-10-27T09:41:35.928Z,1030.97
2016-10-27T09:42:35.950Z,1030.95
2016-10-27T09:43:35.969Z,1030.96
2016-10-27T09:44:35.998Z,1030.93
2016-10-27T09:45:36.017Z,1030.89
2016-10-27T09:46:36.040Z,1030.92
2016-10-27T09:47:36.061Z,1030.91
2016-10-27T09:48:36.088Z,1030.9
2016-10-27T09:49:36.094Z,1030.88
2016-10-27T09:50:36.123Z,1030.87
2016-10-27T09:51:36.151Z,1030.86
2016-10-27T09:52:36.162Z,1030.86
2016-10-27T09:53:36.190Z,1030.9
2016-10-27T09:54:36.208Z,1030.92
2016-10-27T09:55:36.239Z,1030.92
2016-10-27T09:56:36.257Z,1030.89
2016-10-27T09:57:36.272Z,1030.92
2016-10-27T09:58:36.398Z,1030.96
2016-10-27T09:59:36.318Z,1030.98
2016-10-27T10:00:36.539Z,1030.97
2016-10-27T10:01:36.357Z,1030.98
2016-10-27T10:02:36.418Z,1031.01
2016-10-27T10:03:36.398Z,1030.97
2016-10-27T10:04:36.418Z,1030.99
2016-10-27T10:05:36.450Z,1031.03
2016-10-27T10:06:36.471Z,1031.05
2016-10-27T10:07:36.485Z,1031.02
2016-10-27T10:08:36.509Z,1031.07
2016-10-27T10:09:36.623Z,1031.08
2016-10-27T10:10:36.548Z,1031.09
2016-10-27T10:11:36.584Z,1031.06
2016-10-27T10:12:36.600Z,1031.09
2016-10-27T10:13:36.619Z,1031.06
2016-10-27T10:14:36.638Z,1031.05
2016-10-27T10:15:36.656Z,1031.04
2016-10-27T10:16:36.685Z,1031.03
2016-10-27T10:17:36.708Z,1031.06
2016-10-27T10:18:36.720Z,1031.07
2016-10-27T10:19:36.746Z,1031.06
2016-10-27T10:20:36.767Z,1031.09
2016-10-27T10:21:36.785Z,1031.15
2016-10-27T10:22:36.843Z,1031.13
2016-10-27T10:23:36.828Z,1031.16
2016-10-27T10:24:36.849Z,1031.15
2016-10-27T10:25:36.869Z,1031.17
2016-10-27T10:26:36.899Z,1031.17
2016-10-27T10:27:36.920Z,1031.16
2016-10-27T10:28:36.935Z,1031.09
2016-10-27T10:29:36.958Z,1031.18
2016-10-27T10:30:36.979Z,1031.15
2016-10-27T10:31:37.001Z,1031.17
2016-10-27T10:32:37.019Z,1031.15
2016-10-27T10:33:37.050Z,1031.15
2016-10-27T10:34:37.069Z,1031.13
2016-10-27T10:35:37.086Z,1031.14
2016-10-27T10:36:37.107Z,1031.14
2016-10-27T10:37:37.126Z,1031.15
2016-10-27T10:38:37.147Z,1031.12
2016-10-27T10:39:37.169Z,1031.13
2016-10-27T10:40:37.200Z,1031.13
2016-10-27T10:41:37.218Z,1031.12
2016-10-27T10:42:37.241Z,1031.07
2016-10-27T10:43:37.259Z,1031.11
2016-10-27T10:44:37.278Z,1031.06
2016-10-27T10:45:37.298Z,1031.04
2016-10-27T10:46:37.323Z,1031.08
2016-10-27T10:47:37.351Z,1031.06
2016-10-27T10:48:37.367Z,1031.09
2016-10-27T10:49:37.389Z,1031.08
2016-10-27T10:50:37.409Z,1031.05
2016-10-27T10:51:37.440Z,1031.05
2016-10-27T10:52:37.450Z,1030.99
2016-10-27T10:53:37.467Z,1031
2016-10-27T10:54:37.490Z,1031.03
2016-10-27T10:55:37.518Z,1031
2016-10-27T10:56:37.535Z,1031.05
2016-10-27T10:57:37.556Z,1031.03
2016-10-27T10:58:37.577Z,1031.06
2016-10-27T10:59:37.619Z,1031.07
2016-10-27T11:00:37.630Z,1031.06
2016-10-27T11:01:37.845Z,1031.01
2016-10-27T11:02:37.666Z,1031.01
2016-10-27T11:03:37.682Z,1031
2016-10-27T11:04:37.710Z,1031
2016-10-27T11:05:37.730Z,1031
2016-10-27T11:06:37.764Z,1031.01
2016-10-27T11:07:37.781Z,1031.05
2016-10-27T11:08:37.799Z,1031.07
2016-10-27T11:09:37.820Z,1031.07
2016-10-27T11:10:37.847Z,1031.05
2016-10-27T11:11:37.868Z,1031.08
2016-10-27T11:12:37.890Z,1031.09
2016-10-27T11:13:37.908Z,1031.09
2016-10-27T11:14:37.939Z,1031.07
2016-10-27T11:15:37.969Z,1031.06
2016-10-27T11:16:37.989Z,1031.04
2016-10-27T11:17:38.009Z,1031.08
2016-10-27T11:18:38.028Z,1031.08
2016-10-27T11:19:38.052Z,1031.11
2016-10-27T11:20:38.071Z,1031.08
2016-10-27T11:21:38.138Z,1031.02
2016-10-27T11:22:38.115Z,1030.99
2016-10-27T11:23:38.136Z,1031
2016-10-27T11:24:38.159Z,1031.02
2016-10-27T11:25:38.187Z,1030.98
2016-10-27T11:26:38.209Z,1031.02
2016-10-27T11:27:38.229Z,1030.98
2016-10-27T11:28:38.250Z,1031.02
2016-10-27T11:29:38.279Z,1031.05
2016-10-27T11:30:38.297Z,1031.02
2016-10-27T11:31:38.319Z,1030.97
2016-10-27T11:32:38.360Z,1030.97
2016-10-27T11:33:38.368Z,1031.02
2016-10-27T11:34:38.437Z,1031.1
2016-10-27T11:35:38.408Z,1031.08
2016-10-27T11:36:38.438Z,1031.12
2016-10-27T11:37:38.463Z,1031.12
2016-10-27T11:38:38.481Z,1031.12
2016-10-27T11:39:38.506Z,1031.14
2016-10-27T11:40:38.533Z,1031.17
2016-10-27T11:41:38.543Z,1031.17
2016-10-27T11:42:38.569Z,1031.19
2016-10-27T11:43:38.715Z,1031.18
2016-10-27T11:44:38.614Z,1031.24
2016-10-27T11:45:38.706Z,1031.24
2016-10-27T11:46:38.660Z,1031.27
2016-10-27T11:47:38.687Z,1031.27
2016-10-27T11:48:38.706Z,1031.28
2016-10-27T11:49:38.728Z,1031.31
2016-10-27T11:50:38.748Z,1031.26
2016-10-27T11:51:38.771Z,1031.25
2016-10-27T11:52:38.792Z,1031.25
2016-10-27T11:53:38.820Z,1031.24
2016-10-27T11:54:38.838Z,1031.19
2016-10-27T11:55:38.868Z,1031.24
2016-10-27T11:56:38.886Z,1031.25
2016-10-27T11:57:38.908Z,1031.27
2016-10-27T11:58:38.937Z,1031.28
2016-10-27T11:59:38.958Z,1031.28
2016-10-27T12:00:38.980Z,1031.27
2016-10-27T12:01:39.001Z,1031.24
2016-10-27T12:02:39.030Z,1031.29
2016-10-27T12:03:39.047Z,1031.3
2016-10-27T12:04:39.070Z,1031.3
2016-10-27T12:05:39.088Z,1031.32
2016-10-27T12:06:39.119Z,1031.29
2016-10-27T12:07:39.139Z,1031.29
2016-10-27T12:08:39.167Z,1031.3